Time;durP1;ratioP1;P1;durP2;ratioP2;P2;SDS_P1;SDS_P2;PMS_P1;PMS_P2;Temp;Humidity;BMP_temperature;BMP_pressure;BME280_temperature;BME280_humidity;BME280_pressure;Samples;Min_cycle;Max_cycle;Signal;HPM_P1;HPM_P2
2021/04/21 00:01:46;;;;;;;31.17;21.42;;;8.50;99.90;;;9.31;84.13;100547.81;4820309;29;20050;-85
2021/04/21 00:04:17;;;;;;;31.67;19.85;;;8.40;99.90;;;9.24;84.52;100555.94;4820485;29;20478;-86
2021/04/21 00:06:46;;;;;;;30.85;21.27;;;8.30;99.90;;;9.20;85.03;100544.69;4820889;29;20049;-87
2021/04/21 00:09:20;;;;;;;31.02;22.38;;;8.20;99.90;;;9.12;85.90;100545.63;4814727;29;20041;-87
2021/04/21 00:11:50;;;;;;;35.65;23.60;;;8.20;99.90;;;9.11;86.07;100538.44;4814930;29;20026;-86
2021/04/21 00:14:23;;;;;;;37.35;24.15;;;8.20;99.90;;;9.25;85.55;100546.41;4815254;29;20040;-84
2021/04/21 00:17:46;;;;;;;30.60;22.23;;;8.20;99.90;;;9.18;85.64;100543.44;4817369;29;20026;-84
2021/04/21 00:20:15;;;;;;;34.10;22.58;;;8.20;99.90;;;9.14;85.26;100539.72;4814670;29;20440;-86
2021/04/21 00:22:54;;;;;;;37.00;23.70;;;8.20;99.90;;;9.10;85.73;100541.56;4818154;29;20038;-86
2021/04/21 00:25:26;;;;;;;33.03;22.58;;;8.10;99.90;;;8.99;85.77;100533.69;4819431;29;20098;-85
2021/04/21 00:27:53;;;;;;;31.30;23.40;;;8.10;99.90;;;8.92;85.78;100536.28;4818195;29;20125;-88
2021/04/21 00:30:30;;;;;;;30.52;21.70;;;8.00;99.90;;;8.83;86.28;100538.34;4815019;29;20065;-86
2021/04/21 00:33:00;;;;;;;40.72;25.40;;;7.90;99.90;;;8.83;86.60;100532.78;4821914;29;20045;-88
2021/04/21 00:35:34;;;;;;;33.95;23.65;;;7.90;99.90;;;8.75;86.75;100530.94;4831376;29;20026;-88
2021/04/21 00:38:09;;;;;;;35.47;24.02;;;7.80;99.90;;;8.69;86.81;100537.09;4818574;29;20054;-87
2021/04/21 00:40:45;;;;;;;33.72;23.92;;;7.80;99.90;;;8.64;87.29;100531.72;4814628;29;20129;-85
2021/04/21 00:43:48;;;;;;;34.55;23.42;;;7.70;99.90;;;8.62;87.68;100531.28;4815677;29;20045;-85
2021/04/21 00:46:28;;;;;;;37.05;24.40;;;7.70;99.90;;;8.58;87.91;100536.72;4823683;29;20046;-84
2021/04/21 00:49:59;;;;;;;40.55;24.85;;;7.60;99.90;;;8.52;87.84;100537.31;4821284;29;20166;-85
2021/04/21 00:52:59;;;;;;;36.28;23.92;;;7.60;99.90;;;8.44;88.11;100539.06;4778837;30;20127;-87
2021/04/21 00:55:42;;;;;;;34.45;23.30;;;7.50;99.90;;;8.36;88.41;100535.22;4775802;29;20053;-84
2021/04/21 00:58:35;;;;;;;33.70;22.80;;;7.40;99.90;;;8.26;88.59;100535.63;4817700;29;20026;-85
2021/04/21 01:01:02;;;;;;;37.10;25.50;;;7.30;99.90;;;8.22;90.04;100522.75;4821772;29;20135;-87
2021/04/21 01:03:33;;;;;;;37.25;26.70;;;7.40;99.90;;;8.27;89.92;100525.31;4816119;29;20575;-86
2021/04/21 01:06:11;;;;;;;43.67;27.60;;;7.40;99.90;;;8.37;89.94;100528.50;4810646;29;20038;-87
2021/04/21 01:08:56;;;;;;;35.88;24.45;;;7.40;99.90;;;8.40;89.15;100519.44;4804209;29;20042;-85
2021/04/21 01:11:50;;;;;;;34.42;25.00;;;7.40;99.90;;;8.31;89.23;100521.53;4793386;29;20387;-85
2021/04/21 01:14:24;;;;;;;36.13;24.92;;;7.40;99.90;;;8.15;88.92;100519.72;4809571;29;20038;-87
2021/04/21 01:17:00;;;;;;;45.25;26.90;;;7.20;99.90;;;8.09;89.62;100523.91;4793411;29;20038;-89
2021/04/21 01:20:14;;;;;;;38.85;25.30;;;7.20;99.90;;;8.16;89.85;100526.91;4793731;29;20050;-90
2021/04/21 01:23:43;;;;;;;37.33;25.15;;;7.20;99.90;;;8.11;90.13;100524.34;4792487;29;20054;-85
2021/04/21 01:27:04;;;;;;;37.63;25.30;;;7.20;99.90;;;7.97;90.27;100527.44;4792700;29;20035;-87
2021/04/21 01:29:53;;;;;;;42.80;24.92;;;7.10;99.90;;;7.93;90.18;100521.75;4793068;29;20035;-87
2021/04/21 01:32:26;;;;;;;36.25;23.90;;;7.00;99.90;;;7.78;89.76;100524.38;4792973;29;20034;-86
2021/04/21 01:34:59;;;;;;;37.85;25.48;;;6.90;99.90;;;7.66;90.48;100527.13;4793035;29;20034;-88
2021/04/21 01:37:33;;;;;;;46.05;28.15;;;6.80;99.90;;;7.61;90.49;100521.78;4792883;29;20039;-87
2021/04/21 01:40:15;;;;;;;45.72;30.45;;;6.70;99.90;;;7.52;91.14;100519.06;4792402;29;20062;-89
2021/04/21 01:42:52;;;;;;;43.00;28.20;;;6.70;99.90;;;7.53;92.00;100519.88;4808800;29;20042;-89
2021/04/21 01:45:33;;;;;;;46.17;30.05;;;6.60;99.90;;;7.64;92.87;100518.31;4792043;29;20041;-88
2021/04/21 01:48:08;;;;;;;46.35;30.02;;;6.70;99.90;;;7.71;92.99;100518.56;4791972;29;20035;-89
2021/04/21 01:50:38;;;;;;;46.47;29.47;;;6.70;99.90;;;7.69;93.33;100512.53;4792582;29;20031;-90
2021/04/21 01:53:29;;;;;;;54.13;33.95;;;6.80;99.90;;;7.73;94.30;100524.59;4792220;29;20062;-87
2021/04/21 01:57:04;;;;;;;49.47;31.50;;;6.80;99.90;;;7.87;94.77;100528.69;4792553;29;20035;-88
2021/04/21 01:59:54;;;;;;;43.97;30.02;;;6.90;99.90;;;7.89;94.24;100517.25;4791879;29;20037;-90
2021/04/21 02:02:36;;;;;;;48.42;31.25;;;7.00;99.90;;;7.91;94.35;100518.50;4792313;29;20027;-88
2021/04/21 02:05:44;;;;;;;48.28;30.42;;;7.00;99.90;;;7.87;94.61;100520.34;4792330;29;20095;-87
2021/04/21 02:08:44;;;;;;;44.33;27.58;;;6.90;99.90;;;7.78;94.52;100510.47;4792149;29;20164;-86
2021/04/21 02:11:28;;;;;;;43.25;29.17;;;6.90;99.90;;;7.70;94.70;100522.50;4792663;29;20080;-87
2021/04/21 02:14:48;;;;;;;50.38;30.48;;;6.80;99.90;;;7.69;94.90;100521.69;4792965;29;20039;-89
2021/04/21 02:17:38;;;;;;;48.22;28.23;;;6.80;99.90;;;7.75;94.42;100528.66;4791635;29;20099;-89
2021/04/21 02:20:29;;;;;;;44.35;28.05;;;6.80;99.90;;;7.65;93.88;100525.47;4792130;29;20022;-88
2021/04/21 02:23:40;;;;;;;45.65;28.33;;;6.60;99.90;;;7.61;94.10;100522.56;4793551;29;20411;-88
2021/04/21 02:26:42;;;;;;;43.60;29.40;;;6.70;99.90;;;7.59;94.24;100526.84;4795111;29;20349;-87
2021/04/21 02:30:09;;;;;;;46.67;29.27;;;6.60;99.90;;;7.50;93.76;100526.13;4795233;29;20118;-89
2021/04/21 02:33:11;;;;;;;43.60;27.92;;;6.50;99.90;;;7.35;93.93;100530.34;4755283;30;20032;-89
2021/04/21 02:35:54;;;;;;;39.05;26.50;;;6.40;99.90;;;7.29;94.07;100531.66;4740941;30;20052;-86
2021/04/21 02:38:39;;;;;;;42.75;28.30;;;6.30;99.90;;;7.21;93.74;100533.38;4791243;29;20081;-88
2021/04/21 02:41:12;;;;;;;38.95;25.67;;;6.30;99.90;;;7.16;94.04;100530.78;4795612;29;20035;-87
2021/04/21 02:43:47;;;;;;;46.80;30.33;;;6.20;99.90;;;7.23;94.97;100531.06;4795292;29;20042;-88
2021/04/21 02:46:45;;;;;;;41.73;27.27;;;6.20;99.90;;;7.24;94.29;100534.66;4795773;29;20041;-87
2021/04/21 02:50:03;;;;;;;39.85;26.13;;;6.30;99.90;;;7.23;94.17;100533.03;4797116;29;20300;-88
2021/04/21 02:53:10;;;;;;;41.20;27.88;;;6.20;99.90;;;7.20;94.18;100542.88;4797850;29;20047;-90
2021/04/21 02:56:19;;;;;;;;;;;6.20;99.90;;;7.23;94.19;100535.81;4809227;29;20027;-90
2021/04/21 02:59:31;;;;;;;46.17;28.35;;;6.20;99.90;;;7.17;94.53;100532.44;4821333;29;19957;-90
2021/04/21 03:02:47;;;;;;;51.90;29.63;;;6.20;99.90;;;7.12;94.26;100532.66;4810777;29;20035;-90
2021/04/21 03:05:19;;;;;;;46.85;30.13;;;6.20;99.90;;;7.12;94.49;100537.38;4794548;29;20090;-90
2021/04/21 03:08:12;;;;;;;47.92;30.50;;;6.10;99.90;;;7.13;95.12;100530.66;4794574;29;20091;-89
2021/04/21 03:11:15;;;;;;;51.30;31.30;;;6.10;99.90;;;7.22;94.81;100532.25;4794247;29;20038;-88
2021/04/21 03:14:18;;;;;;;55.40;31.58;;;6.20;99.90;;;7.37;94.46;100539.97;4794321;29;20046;-90
2021/04/21 03:17:09;;;;;;;46.15;28.70;;;6.30;99.90;;;7.36;94.26;100530.00;4791606;29;20077;-90
2021/04/21 03:20:17;;;;;;;46.40;28.67;;;6.30;99.90;;;7.41;93.63;100538.13;4795645;29;20055;-89
2021/04/21 03:23:03;;;;;;;49.40;30.08;;;6.30;99.90;;;7.38;93.75;100532.44;4793869;29;20038;-88
2021/04/21 03:25:42;;;;;;;52.85;31.50;;;6.30;99.90;;;7.38;94.06;100526.88;4796062;29;20060;-87
2021/04/21 03:28:18;;;;;;;42.88;28.17;;;6.30;99.90;;;7.40;94.05;100532.91;4797086;29;20035;-90
2021/04/21 03:30:51;;;;;;;48.92;31.65;;;6.40;99.90;;;7.42;93.81;100538.94;4796974;29;20169;-88
2021/04/21 03:33:48;;;;;;;50.03;31.60;;;6.40;99.90;;;7.47;93.86;100538.72;4795645;29;20047;-90
2021/04/21 03:36:19;;;;;;;48.72;27.08;;;6.40;99.90;;;7.40;93.64;100533.72;4796573;29;20042;-90
2021/04/21 03:39:00;;;;;;;48.22;30.23;;;6.30;99.90;;;7.38;93.93;100536.00;4796428;29;20088;-89
2021/04/21 03:41:26;;;;;;;48.88;30.10;;;6.30;99.90;;;7.29;93.98;100535.28;4796255;29;20129;-89
2021/04/21 03:43:57;;;;;;;45.85;28.58;;;6.30;99.90;;;7.29;94.09;100532.50;4796462;29;20031;-89
2021/04/21 03:46:24;;;;;;;43.00;28.30;;;6.30;99.90;;;7.34;94.18;100539.81;4796125;29;20141;-90
2021/04/21 03:48:51;;;;;;;51.15;30.42;;;6.30;99.90;;;7.28;94.32;100528.09;4795810;29;20122;-91
2021/04/21 03:51:23;;;;;;;50.70;28.80;;;6.30;99.90;;;7.28;94.29;100524.50;4796378;29;20049;-89
2021/04/21 03:54:04;;;;;;;51.95;30.20;;;6.30;99.90;;;7.26;94.44;100527.63;4795851;29;20103;-86
2021/04/21 03:56:32;;;;;;;50.45;29.80;;;6.30;99.90;;;7.28;94.48;100525.34;4796729;29;20034;-90
2021/04/21 03:59:00;;;;;;;45.35;28.40;;;6.30;99.90;;;7.25;94.36;100526.00;4798092;29;20480;-91
2021/04/21 04:01:27;;;;;;;48.08;31.63;;;6.30;99.90;;;7.24;95.05;100524.38;4796179;29;20053;-89
2021/04/21 04:04:08;;;;;;;46.13;29.20;;;6.30;99.90;;;7.31;94.85;100530.22;4812369;29;20110;-89
2021/04/21 04:06:46;;;;;;;47.35;29.02;;;6.30;99.90;;;7.28;94.67;100524.50;4796408;29;20035;-90
2021/04/21 04:09:22;;;;;;;48.53;29.08;;;6.30;99.90;;;7.22;94.80;100521.13;4796599;29;20391;-93
2021/04/21 04:11:55;;;;;;;;;;;6.20;99.90;;;7.19;94.83;100530.13;4810113;29;20035;-86
2021/04/21 04:14:33;;;;;;;47.42;29.35;;;6.20;99.90;;;7.15;94.86;100531.16;4817471;29;19913;-89
2021/04/21 04:17:03;;;;;;;47.13;30.15;;;6.20;99.90;;;7.16;94.77;100536.34;4797201;29;20039;-85
2021/04/21 04:19:41;;;;;;;43.90;28.42;;;6.20;99.90;;;7.15;94.28;100534.75;4795414;29;20137;-84
2021/04/21 04:22:13;;;;;;;48.28;28.88;;;6.10;99.90;;;7.19;94.53;100529.31;4796823;29;20039;-84
2021/04/21 04:24:56;;;;;;;47.65;29.90;;;6.10;99.90;;;7.20;94.84;100537.31;4798655;29;20023;-85
2021/04/21 04:27:28;;;;;;;47.83;31.60;;;6.20;99.90;;;7.33;94.72;100543.75;4797986;29;20031;-86
2021/04/21 04:29:59;;;;;;;48.13;28.67;;;6.20;99.90;;;7.30;94.80;100544.41;4797668;29;20054;-85
2021/04/21 04:32:27;;;;;;;42.90;27.10;;;6.30;99.90;;;7.30;94.55;100548.03;4807354;29;20027;-85
2021/04/21 04:34:58;;;;;;;48.45;28.42;;;6.30;99.90;;;7.36;94.43;100552.22;4798941;29;20059;-86
2021/04/21 04:37:30;;;;;;;46.72;29.48;;;6.30;99.90;;;7.37;94.61;100545.50;4803346;29;20043;-85
2021/04/21 04:39:57;;;;;;;45.03;28.15;;;6.30;99.90;;;7.48;94.65;100543.13;4798651;29;20034;-84
2021/04/21 04:42:24;;;;;;;48.17;29.98;;;6.40;99.90;;;7.61;94.35;100557.91;4798716;29;20088;-88
2021/04/21 04:44:56;;;;;;;41.95;28.35;;;6.50;99.90;;;7.68;94.51;100549.81;4795309;29;20424;-89
2021/04/21 04:47:38;;;;;;;41.47;26.77;;;6.60;99.90;;;7.76;94.29;100552.53;4797050;29;20031;-86
2021/04/21 04:50:15;;;;;;;42.95;27.90;;;6.70;99.90;;;7.86;93.89;100557.69;4797407;29;20038;-90
2021/04/21 04:52:56;;;;;;;48.25;30.50;;;6.80;99.90;;;7.95;94.02;100541.72;4795817;29;20039;-88
2021/04/21 04:55:27;;;;;;;50.17;30.73;;;6.90;99.90;;;8.06;93.81;100550.41;4794710;29;20041;-88
2021/04/21 04:57:57;;;;;;;50.20;32.45;;;6.90;99.90;;;8.19;93.38;100551.25;4797400;29;20045;-90
2021/04/21 05:00:28;;;;;;;50.10;31.45;;;7.00;99.90;;;8.26;93.20;100554.28;4795451;29;20459;-88
2021/04/21 05:03:31;;;;;;;52.65;29.92;;;7.10;99.90;;;8.32;93.07;100556.53;4793289;29;20126;-86
2021/04/21 05:06:04;;;;;;;49.83;29.65;;;7.20;99.90;;;8.36;92.86;100562.22;4795291;29;20054;-86
2021/04/21 05:08:52;;;;;;;45.05;28.20;;;7.20;99.90;;;8.40;92.69;100563.97;4800594;29;20098;-86
2021/04/21 05:11:23;;;;;;;46.70;30.50;;;7.30;99.90;;;8.48;92.37;100564.22;4812149;29;20030;-84
2021/04/21 05:13:53;;;;;;;48.13;29.10;;;7.40;99.90;;;8.58;91.88;100567.34;4815432;29;20102;-89
2021/04/21 05:16:25;;;;;;;49.58;30.40;;;7.40;99.90;;;8.69;91.20;100576.88;4813327;29;20038;-87
2021/04/21 05:19:46;;;;;;;43.97;29.42;;;7.50;99.90;;;8.77;90.94;100584.28;4811926;29;20030;-88
2021/04/21 05:22:41;;;;;;;42.72;27.33;;;7.60;99.90;;;8.84;90.58;100578.16;4811200;29;20212;-89
2021/04/21 05:25:44;;;;;;;48.78;30.25;;;7.70;99.90;;;8.93;90.48;100576.06;4813710;29;20034;-88
2021/04/21 05:28:55;;;;;;;42.97;28.88;;;7.70;99.90;;;9.03;90.23;100572.81;4823153;29;20034;-80
2021/04/21 05:35:51;;;;;;;47.83;30.33;;;7.90;99.90;;;9.22;90.20;100586.13;4830234;29;20038;-88
2021/04/21 05:38:46;;;;;;;50.40;31.45;;;8.00;99.90;;;9.28;89.79;100576.41;4817661;29;20030;-88
2021/04/21 05:42:04;;;;;;;43.58;29.48;;;8.10;99.90;;;9.35;90.06;100579.38;4833361;29;20058;-87
2021/04/21 05:45:15;;;;;;;49.67;30.30;;;8.10;99.90;;;9.47;89.77;100582.16;4817138;29;20034;-89
2021/04/21 05:48:05;;;;;;;48.40;30.85;;;8.20;99.90;;;9.56;89.50;100585.63;4815694;29;20030;-87
2021/04/21 05:51:05;;;;;;;52.53;31.02;;;8.30;99.90;;;9.61;89.66;100576.97;4814533;29;20440;-88
2021/04/21 05:54:05;;;;;;;55.65;34.33;;;8.40;99.90;;;9.71;89.09;100584.03;4812238;29;20089;-89
2021/04/21 05:57:10;;;;;;;49.70;31.52;;;8.50;99.90;;;9.81;88.66;100591.91;4811212;29;20033;-88
2021/04/21 06:00:25;;;;;;;44.50;30.35;;;8.60;99.90;;;9.94;87.74;100590.69;4811414;29;20038;-88
2021/04/21 06:02:53;;;;;;;47.78;31.23;;;8.60;99.90;;;10.02;87.41;100590.53;4811090;29;20031;-85
2021/04/21 06:05:23;;;;;;;51.53;31.88;;;8.80;99.90;;;10.17;86.89;100593.78;4811661;29;20035;-86
2021/04/21 06:07:51;;;;;;;49.83;30.25;;;8.80;99.90;;;10.22;86.35;100591.53;4819807;29;20041;-85
2021/04/21 06:10:29;;;;;;;47.20;29.83;;;8.90;99.90;;;10.38;86.25;100597.13;4795018;29;20042;-88
2021/04/21 06:13:36;;;;;;;43.58;28.90;;;9.10;99.90;;;10.53;85.94;100601.94;4799258;29;20038;-87
2021/04/21 06:16:07;;;;;;;46.13;28.98;;;9.10;99.90;;;10.61;85.52;100595.34;4805806;29;20066;-89
2021/04/21 06:18:35;;;;;;;44.67;28.77;;;9.30;99.90;;;10.81;84.73;100601.84;4797025;29;20039;-87
2021/04/21 06:21:14;;;;;;;43.90;27.63;;;9.50;99.90;;;11.02;83.84;100596.78;4792808;29;20031;-86
2021/04/21 06:23:46;;;;;;;41.88;27.65;;;9.60;99.90;;;11.31;82.76;100601.06;4792584;29;20043;-87
2021/04/21 06:26:25;;;;;;;46.53;29.50;;;9.90;99.90;;;11.88;82.18;100601.16;4791341;29;20084;-87
2021/04/21 06:29:17;;;;;;;46.83;30.75;;;10.30;99.90;;;12.48;79.42;100604.34;4811989;29;20054;-86
2021/04/21 06:31:51;;;;;;;40.38;27.10;;;10.80;99.90;;;12.89;76.70;100602.69;4805641;29;20046;-87
2021/04/21 06:34:17;;;;;;;47.13;28.42;;;11.20;99.90;;;13.29;74.21;100602.97;4810048;29;20098;-88
2021/04/21 06:36:57;;;;;;;39.42;27.13;;;11.60;99.90;;;13.68;72.80;100595.09;4811153;29;20062;-87
2021/04/21 06:39:30;;;;;;;42.63;28.02;;;12.00;99.90;;;14.02;70.83;100608.00;4807034;29;20045;-89
2021/04/21 06:42:04;;;;;;;46.97;28.38;;;12.30;99.90;;;14.04;69.73;100611.22;4800211;29;20031;-88
2021/04/21 06:44:43;;;;;;;44.80;26.77;;;12.40;99.90;;;13.97;69.10;100611.13;4804526;29;20026;-86
2021/04/21 06:47:24;;;;;;;51.05;29.35;;;12.40;99.90;;;14.10;69.92;100614.47;4792894;29;20492;-86
2021/04/21 06:50:10;;;;;;;58.13;29.45;;;12.50;99.90;;;14.40;68.22;100612.47;4792933;29;20103;-88
2021/04/21 06:52:43;;;;;;;55.78;29.73;;;12.80;99.90;;;14.59;67.26;100612.28;4786287;29;20156;-84
2021/04/21 06:55:16;;;;;;;60.08;31.23;;;13.10;99.90;;;14.92;65.52;100621.81;4792921;29;20054;-87
2021/04/21 06:57:45;;;;;;;56.75;28.77;;;13.30;99.90;;;15.12;65.74;100611.97;4803116;29;20098;-85
2021/04/21 07:00:25;;;;;;;66.00;30.92;;;13.40;99.90;;;15.11;64.55;100627.22;4793771;29;20030;-86
2021/04/21 07:08:27;;;;;;;42.53;28.75;;;13.60;99.90;;;15.64;61.26;100624.78;4807023;29;20072;-85
2021/04/21 07:11:02;;;;;;;44.13;28.13;;;14.00;99.90;;;15.63;60.55;100628.81;4795197;29;20058;-85
2021/04/21 07:13:40;;;;;;;40.13;25.67;;;14.00;99.90;;;15.96;59.49;100622.97;4793394;29;20438;-85
2021/04/21 07:16:20;;;;;;;40.70;26.42;;;14.20;99.90;;;16.40;58.43;100621.94;4794897;29;20160;-87
2021/04/21 07:18:56;;;;;;;39.47;26.42;;;14.60;99.90;;;16.63;57.13;100622.44;4795566;29;20099;-85
2021/04/21 07:21:24;;;;;;;;;;;14.80;99.90;;;16.97;54.74;100620.06;4778999;30;20039;-83
2021/04/21 07:23:56;;;;;;;37.65;24.88;;;15.10;99.90;;;16.88;54.22;100626.09;4777877;30;19917;-83
2021/04/21 07:26:50;;;;;;;31.50;24.25;;;15.10;99.90;;;17.08;54.19;100626.50;4794335;29;20039;-83
2021/04/21 07:29:25;;;;;;;35.40;25.25;;;15.20;99.90;;;16.86;53.51;100628.50;4778953;30;20085;-86
2021/04/21 07:31:55;;;;;;;35.58;25.38;;;15.20;99.90;;;16.45;54.61;100627.16;4795223;30;20035;-80
2021/04/21 07:34:35;;;;;;;34.58;23.40;;;15.10;99.90;;;17.00;54.24;100628.53;4795348;29;20061;-82
2021/04/21 07:37:02;;;;;;;31.85;23.27;;;15.30;99.90;;;17.33;53.79;100630.13;4793599;30;20042;-84
2021/04/21 07:39:43;;;;;;;34.05;25.10;;;15.50;99.90;;;17.69;51.82;100634.53;4793411;30;20032;-83
2021/04/21 07:42:18;;;;;;;30.23;23.02;;;15.80;99.90;;;18.14;51.41;100635.59;4793380;30;20031;-83
2021/04/21 07:44:51;;;;;;;;;;;16.10;99.90;;;18.50;49.30;100632.63;4792888;29;20088;-83
2021/04/21 07:47:25;;;;;;;34.05;23.55;;;16.40;99.90;;;18.67;49.54;100638.22;4777461;30;19914;-83
2021/04/21 07:50:02;;;;;;;31.63;24.10;;;16.70;99.90;;;18.78;48.51;100629.66;4776983;30;20100;-83
2021/04/21 07:52:33;;;;;;;31.80;24.80;;;16.90;98.00;;;19.02;47.90;100639.19;4793063;30;20340;-84
2021/04/21 07:55:16;;;;;;;31.27;24.35;;;17.00;96.90;;;19.11;46.33;100640.31;4776181;30;20031;-83
2021/04/21 07:57:57;;;;;;;31.33;23.33;;;17.20;93.00;;;19.28;46.45;100641.41;4791782;29;20070;-84
2021/04/21 08:00:28;;;;;;;34.28;25.90;;;17.30;92.40;;;19.36;45.31;100643.75;4791871;29;20028;-83
2021/04/21 08:02:56;;;;;;;33.60;24.70;;;17.40;90.70;;;19.62;45.37;100647.22;4776800;29;20047;-85
2021/04/21 08:05:22;;;;;;;32.10;24.30;;;17.50;90.10;;;19.93;44.01;100644.03;4792787;30;20071;-85
2021/04/21 08:08:00;;;;;;;30.92;24.52;;;17.80;86.50;;;19.86;44.11;100648.97;4792239;30;20035;-85
2021/04/21 08:10:34;;;;;;;29.80;23.27;;;18.00;85.00;;;20.44;43.58;100651.53;4792249;30;20032;-84
2021/04/21 08:13:03;;;;;;;32.72;23.67;;;18.30;84.20;;;20.46;42.86;100642.59;4777486;29;20043;-82
2021/04/21 08:15:39;;;;;;;31.98;22.55;;;18.20;82.20;;;20.48;42.55;100651.50;4793668;30;20119;-85
2021/04/21 08:18:14;;;;;;;31.13;22.23;;;18.40;80.40;;;20.87;41.95;100646.03;4793315;30;20124;-82
2021/04/21 08:20:51;;;;;;;37.90;25.40;;;18.70;77.60;;;21.12;41.30;100648.56;4793354;30;20165;-85
2021/04/21 08:23:21;;;;;;;33.65;21.98;;;18.90;77.30;;;21.43;40.39;100640.72;4792082;29;20536;-81
2021/04/21 08:25:49;;;;;;;34.90;22.65;;;19.10;74.20;;;21.46;40.40;100643.50;4776849;30;20348;-84
2021/04/21 08:28:15;;;;;;;36.83;24.65;;;19.10;74.00;;;21.21;39.36;100648.81;4793867;30;20084;-85
2021/04/21 08:31:01;;;;;;;35.25;23.42;;;19.20;71.00;;;21.27;39.07;100641.41;4791985;30;20039;-83
2021/04/21 08:33:33;;;;;;;52.58;25.42;;;19.20;69.60;;;21.36;38.18;100644.47;4777462;30;20039;-86
2021/04/21 08:35:59;;;;;;;48.35;25.92;;;19.20;67.10;;;21.38;37.62;100644.06;4792308;30;20043;-82
2021/04/21 08:38:28;;;;;;;52.53;26.27;;;19.30;65.40;;;21.99;37.22;100653.13;4790727;30;20039;-85
2021/04/21 08:40:54;;;;;;;54.72;26.80;;;19.50;65.80;;;22.11;34.85;100637.44;4776003;30;20042;-82
2021/04/21 08:43:21;;;;;;;69.45;35.85;;;19.70;61.00;;;21.97;35.54;100658.44;4791516;29;20069;-82
2021/04/21 08:45:47;;;;;;;54.88;27.60;;;19.70;61.60;;;22.01;35.47;100650.63;4790877;29;20023;-83
2021/04/21 08:48:15;;;;;;;30.40;16.58;;;19.80;60.60;;;21.98;32.91;100654.34;4775820;30;20039;-86
2021/04/21 08:50:43;;;;;;;23.80;14.43;;;19.80;57.10;;;22.04;32.02;100652.59;4792032;30;20031;-85
2021/04/21 08:53:15;;;;;;;23.23;14.68;;;19.80;55.20;;;21.75;32.60;100660.03;4777606;29;20059;-88
2021/04/21 08:55:44;;;;;;;18.17;12.38;;;19.60;56.00;;;21.63;31.50;100652.16;4803321;30;20483;-81
2021/04/21 08:58:13;;;;;;;17.33;11.18;;;19.50;54.70;;;21.44;31.96;100653.69;4805181;30;20039;-84
2021/04/21 09:00:41;;;;;;;16.77;11.32;;;19.40;54.00;;;21.35;31.78;100648.56;4793370;30;20087;-85
2021/04/21 09:03:07;;;;;;;15.65;10.20;;;19.40;53.90;;;21.44;31.70;100660.19;4793943;29;20035;-83
2021/04/21 09:05:34;;;;;;;16.02;10.65;;;19.50;54.00;;;21.66;32.22;100663.44;4774780;30;20404;-83
2021/04/21 09:08:02;;;;;;;15.35;10.85;;;19.50;54.80;;;21.34;30.65;100652.66;4789240;30;20130;-86
2021/04/21 09:10:28;;;;;;;15.55;8.95;;;19.50;52.10;;;;;;4772612;30;20377;-80
2021/04/21 09:12:54;;;;;;;11.52;8.10;;;19.50;49.70;;;21.17;29.58;100661.44;4790238;29;20024;-83
2021/04/21 09:15:20;;;;;;;13.55;9.55;;;19.30;50.00;;;21.11;29.44;100661.13;4790012;30;20039;-85
2021/04/21 09:17:56;;;;;;;12.57;9.15;;;19.20;49.70;;;21.65;30.03;100661.84;4791060;30;20323;-85
2021/04/21 09:20:26;;;;;;;13.20;7.97;;;19.40;50.90;;;21.89;28.67;100669.16;4792460;30;20111;-85
2021/04/21 09:23:13;;;;;;;12.60;7.13;;;19.80;49.30;;;21.89;28.63;100669.16;4776759;29;20047;-84
2021/04/21 09:25:44;;;;;;;12.77;7.55;;;19.90;48.60;;;21.61;27.32;100668.84;4794069;30;20034;-83
2021/04/21 09:28:13;;;;;;;13.25;7.80;;;19.80;46.20;;;21.68;28.89;100660.16;4792831;30;20043;-83
2021/04/21 09:30:50;;;;;;;15.55;7.55;;;19.80;48.50;;;21.61;27.36;100668.84;4790645;29;20118;-81
2021/04/21 09:33:17;;;;;;;10.70;7.32;;;19.80;46.70;;;20.98;28.05;100662.94;4775714;30;20032;-86
2021/04/21 09:35:47;;;;;;;11.13;7.30;;;19.40;46.50;;;20.87;28.97;100676.50;4791422;30;20036;-85
2021/04/21 09:38:29;;;;;;;12.25;7.90;;;19.30;48.50;;;21.43;29.46;100678.47;4791538;30;20031;-84
2021/04/21 09:41:00;;;;;;;10.68;7.15;;;19.60;48.80;;;21.01;29.70;100670.59;4792383;30;20031;-83
2021/04/21 09:43:36;;;;;;;12.80;7.28;;;19.50;48.50;;;20.53;29.77;100676.53;4791492;30;20023;-82
2021/04/21 09:46:20;;;;;;;11.55;6.97;;;19.10;48.30;;;19.92;30.27;100673.59;4791042;30;20108;-85
2021/04/21 09:48:48;;;;;;;10.38;6.50;;;18.60;48.80;;;19.94;29.75;100678.81;4790724;30;20530;-84
2021/04/21 09:51:22;;;;;;;7.97;5.93;;;18.50;48.80;;;19.79;30.86;100672.50;4777820;30;20088;-83
2021/04/21 09:53:51;;;;;;;10.30;7.07;;;18.30;50.20;;;20.13;31.36;100672.53;4774004;30;20111;-81
2021/04/21 09:56:23;;;;;;;12.63;6.53;;;18.40;51.30;;;20.48;30.45;100668.53;4791133;30;20062;-83
2021/04/21 09:58:53;;;;;;;11.50;6.80;;;18.80;50.00;;;20.98;29.84;100672.25;4778665;30;20555;-83
2021/04/21 10:01:34;;;;;;;11.82;7.13;;;19.10;49.30;;;20.84;28.72;100668.81;4784000;30;20064;-83
2021/04/21 10:04:22;;;;;;;12.10;6.85;;;19.10;47.50;;;20.68;28.57;100665.81;4807729;29;20043;-83
2021/04/21 10:06:54;;;;;;;9.73;6.70;;;19.00;47.50;;;20.40;28.41;100670.63;4798168;30;20107;-81
2021/04/21 10:09:37;;;;;;;11.25;6.72;;;18.90;47.10;;;20.20;30.18;100675.28;4764920;30;20146;-82
2021/04/21 10:12:18;;;;;;;12.90;7.78;;;18.60;48.70;;;20.07;30.37;100667.78;4757313;30;20081;-84
2021/04/21 10:15:09;;;;;;;12.77;7.15;;;18.40;49.50;;;20.27;31.01;100665.94;4786052;29;20221;-85
2021/04/21 10:17:45;;;;;;;8.20;7.07;;;18.50;50.60;;;20.12;31.10;100659.59;4786297;30;20549;-83
2021/04/21 10:20:18;;;;;;;15.23;6.95;;;18.40;50.20;;;20.11;30.94;100655.16;4772953;30;20114;-84
2021/04/21 10:22:50;;;;;;;8.63;7.47;;;18.50;50.60;;;20.04;30.49;100662.94;4788488;30;20032;-82
2021/04/21 10:25:16;;;;;;;11.27;7.60;;;18.40;49.70;;;19.73;31.28;100657.19;4777443;30;20066;-82
2021/04/21 10:27:43;;;;;;;10.38;7.45;;;18.30;50.30;;;19.93;30.63;100654.56;4773548;30;20032;-84
2021/04/21 10:30:11;;;;;;;12.52;7.15;;;18.40;49.90;;;19.99;30.76;100665.03;4788951;30;20043;-82
2021/04/21 10:32:47;;;;;;;9.07;6.70;;;18.50;49.80;;;20.22;30.25;100681.38;4774726;30;20389;-83
2021/04/21 10:35:14;;;;;;;10.82;7.10;;;18.60;50.10;;;19.87;31.41;100667.59;4774881;30;20122;-82
2021/04/21 10:37:42;;;;;;;12.10;7.70;;;18.40;50.40;;;19.80;31.40;100668.47;4788728;30;20039;-82
2021/04/21 10:40:12;;;;;;;9.20;7.25;;;18.30;50.90;;;20.44;31.44;100662.88;4774214;30;20042;-86
2021/04/21 10:43:05;;;;;;;11.98;7.13;;;18.60;51.20;;;21.65;29.66;100661.84;4774449;30;20073;-83
2021/04/21 10:45:53;;;;;;;11.65;6.85;;;19.40;50.30;;;21.97;28.72;100662.06;4795529;30;20032;-82
2021/04/21 10:48:38;;;;;;;9.75;6.22;;;20.10;47.80;;;22.77;27.46;100666.53;4779198;30;20028;-85
2021/04/21 10:51:46;;;;;;;8.88;7.00;;;20.80;46.80;;;23.26;26.92;100670.25;4780073;30;20043;-82
2021/04/21 10:54:59;;;;;;;11.15;6.40;;;21.20;46.80;;;23.20;26.88;100666.34;4781141;30;20031;-84
2021/04/21 10:58:12;;;;;;;9.38;7.35;;;21.50;45.80;;;23.12;27.68;100670.59;4794733;30;20031;-86
2021/04/21 11:00:57;;;;;;;9.48;7.25;;;21.30;46.30;;;23.16;27.71;100662.75;4797755;30;20110;-82
2021/04/21 11:03:41;;;;;;;9.05;7.55;;;21.30;46.30;;;22.53;28.26;100662.97;4782084;30;20122;-84
2021/04/21 11:06:10;;;;;;;10.57;7.50;;;21.40;45.90;;;23.25;28.70;100653.59;4796643;30;20043;-83
2021/04/21 11:09:11;;;;;;;;;;;;;;;;;;;;;
2021/04/21 11:11:49;;;;;;;7.85;6.20;;;21.70;45.30;;;22.97;27.96;100655.09;4809513;30;20128;-82
2021/04/21 11:14:56;;;;;;;10.10;7.55;;;21.30;46.40;;;22.46;28.39;100656.63;4789716;29;20044;-84
2021/04/21 11:17:27;;;;;;;13.20;8.23;;;21.00;46.20;;;21.51;29.23;100665.72;4781078;30;20161;-85